createdAt,value
2019-02-17T00:01:55.530Z,23.43
2019-02-17T00:04:23.796Z,24.20
2019-02-17T00:06:52.054Z,21.90
2019-02-17T00:09:20.564Z,22.42
2019-02-17T00:11:48.824Z,22.55
2019-02-17T00:14:17.092Z,22.02
2019-02-17T00:16:45.345Z,24.07
2019-02-17T00:19:13.623Z,23.15
2019-02-17T00:21:41.895Z,20.50
2019-02-17T00:24:10.157Z,22.00
2019-02-17T00:26:38.422Z,20.67
2019-02-17T00:29:06.670Z,21.73
2019-02-17T00:31:34.936Z,21.90
2019-02-17T00:34:03.213Z,24.10
2019-02-17T00:36:31.461Z,23.30
2019-02-17T00:38:59.724Z,24.75
2019-02-17T00:41:27.994Z,23.05
2019-02-17T00:43:56.256Z,21.80
2019-02-17T00:46:24.510Z,21.13
2019-02-17T00:48:52.791Z,21.67
2019-02-17T00:51:21.044Z,22.33
2019-02-17T00:53:49.315Z,22.83
2019-02-17T00:56:17.576Z,21.57
2019-02-17T00:58:45.828Z,22.45
2019-02-17T01:01:14.111Z,21.57
2019-02-17T01:03:42.380Z,22.80
2019-02-17T01:06:10.636Z,21.97
2019-02-17T01:08:38.920Z,21.57
2019-02-17T01:11:07.180Z,23.70
2019-02-17T01:13:35.466Z,23.20
2019-02-17T01:16:03.725Z,21.02
2019-02-17T01:18:32.007Z,22.90
2019-02-17T01:21:00.276Z,23.00
2019-02-17T01:23:28.537Z,22.90
2019-02-17T01:25:56.789Z,23.60
2019-02-17T01:28:25.054Z,22.30
2019-02-17T01:30:53.327Z,22.40
2019-02-17T01:33:21.583Z,21.30
2019-02-17T01:35:49.852Z,21.20
2019-02-17T01:38:18.123Z,21.33
2019-02-17T01:40:46.380Z,22.20
2019-02-17T01:43:14.663Z,20.90
2019-02-17T01:45:42.933Z,19.60
2019-02-17T01:48:11.218Z,18.87
2019-02-17T01:50:39.492Z,18.27
2019-02-17T01:53:07.749Z,19.35
2019-02-17T01:55:36.029Z,19.77
2019-02-17T01:58:04.302Z,18.30
2019-02-17T02:00:32.567Z,18.83
2019-02-17T02:03:01.543Z,17.62
2019-02-17T02:05:29.811Z,17.43
2019-02-17T02:07:58.079Z,18.35
2019-02-17T02:10:26.351Z,18.05
2019-02-17T02:12:54.608Z,17.67
2019-02-17T02:15:22.891Z,17.15
2019-02-17T02:17:51.151Z,17.40
2019-02-17T02:20:19.423Z,18.40
2019-02-17T02:22:47.702Z,17.57
2019-02-17T02:25:15.971Z,18.07
2019-02-17T02:27:44.230Z,16.77
2019-02-17T02:30:13.665Z,16.53
2019-02-17T02:32:41.936Z,17.00
2019-02-17T02:35:10.218Z,17.40
2019-02-17T02:37:38.473Z,18.87
2019-02-17T02:40:07.833Z,19.40
2019-02-17T02:42:36.087Z,16.73
2019-02-17T02:45:06.509Z,17.47
2019-02-17T02:47:34.768Z,18.47
2019-02-17T02:50:03.026Z,16.73
2019-02-17T02:52:31.311Z,17.80
2019-02-17T02:54:59.583Z,16.63
2019-02-17T02:57:27.855Z,16.33
2019-02-17T02:59:56.113Z,16.87
2019-02-17T03:02:24.373Z,16.63
2019-02-17T03:04:52.639Z,17.10
2019-02-17T03:07:20.977Z,15.60
2019-02-17T03:09:49.238Z,14.23
2019-02-17T03:12:17.504Z,15.90
2019-02-17T03:14:45.774Z,13.63
2019-02-17T03:17:14.059Z,14.00
2019-02-17T03:19:42.301Z,13.47
2019-02-17T03:22:10.590Z,13.10
2019-02-17T03:24:38.865Z,12.67
2019-02-17T03:27:07.141Z,15.10
2019-02-17T03:29:35.411Z,17.57
2019-02-17T03:32:03.682Z,17.48
2019-02-17T03:34:31.942Z,18.57
2019-02-17T03:37:00.224Z,19.03
2019-02-17T03:39:28.467Z,21.50
2019-02-17T03:41:56.723Z,18.67
2019-02-17T03:44:24.986Z,20.67
2019-02-17T03:46:53.265Z,21.33
2019-02-17T03:49:21.533Z,22.07
2019-02-17T03:51:49.809Z,22.63
2019-02-17T03:54:18.077Z,24.77
2019-02-17T03:56:46.345Z,25.40
2019-02-17T03:59:14.619Z,26.00
2019-02-17T04:01:42.942Z,26.55
2019-02-17T04:04:11.151Z,26.60
2019-02-17T04:06:39.406Z,26.30
2019-02-17T04:09:07.979Z,26.42
2019-02-17T04:11:36.307Z,26.83
2019-02-17T04:14:04.578Z,24.15
2019-02-17T04:16:32.851Z,27.47
2019-02-17T04:19:01.145Z,25.95
2019-02-17T04:21:29.414Z,26.10
2019-02-17T04:23:57.699Z,26.73
2019-02-17T04:26:25.981Z,26.90
2019-02-17T04:28:54.260Z,28.37
2019-02-17T04:31:22.534Z,25.93
2019-02-17T04:33:50.788Z,27.63
2019-02-17T04:36:19.049Z,26.85
2019-02-17T04:38:47.326Z,28.07
2019-02-17T04:41:15.581Z,27.63
2019-02-17T04:43:43.848Z,27.67
2019-02-17T04:46:12.111Z,27.00
2019-02-17T04:48:40.371Z,28.93
2019-02-17T04:51:08.635Z,27.42
2019-02-17T04:53:36.911Z,28.70
2019-02-17T04:56:05.169Z,29.90
2019-02-17T04:58:33.446Z,30.23
2019-02-17T05:01:01.718Z,29.67
2019-02-17T05:03:29.985Z,28.83
2019-02-17T05:05:58.263Z,29.20
2019-02-17T05:08:26.524Z,28.97
2019-02-17T05:10:54.813Z,28.50
2019-02-17T05:13:23.083Z,27.77
2019-02-17T05:15:51.320Z,28.83
2019-02-17T05:18:19.588Z,29.53
2019-02-17T05:20:47.861Z,29.67
2019-02-17T05:23:16.137Z,30.03
2019-02-17T05:25:44.426Z,28.87
2019-02-17T05:28:12.704Z,28.30
2019-02-17T05:30:52.246Z,28.85
2019-02-17T05:33:10.977Z,30.17
2019-02-17T05:35:39.255Z,30.13
2019-02-17T05:38:07.515Z,26.80
2019-02-17T05:40:36.536Z,31.20
2019-02-17T05:43:05.026Z,30.33
2019-02-17T05:45:33.304Z,30.70
2019-02-17T05:48:01.582Z,31.33
2019-02-17T05:50:29.939Z,32.85
2019-02-17T05:52:58.207Z,30.68
2019-02-17T05:55:26.489Z,31.20
2019-02-17T05:57:54.758Z,30.60
2019-02-17T06:00:24.713Z,31.60
2019-02-17T06:02:52.960Z,32.60
2019-02-17T06:05:21.226Z,33.17
2019-02-17T06:07:49.489Z,32.53
2019-02-17T06:10:17.751Z,32.33
2019-02-17T06:12:46.029Z,33.03
2019-02-17T06:15:14.290Z,33.92
2019-02-17T06:17:42.566Z,30.87
2019-02-17T06:20:11.394Z,32.50
2019-02-17T06:22:39.648Z,32.23
2019-02-17T06:25:07.939Z,34.93
2019-02-17T06:27:36.200Z,33.57
2019-02-17T06:30:06.089Z,32.77
2019-02-17T06:32:34.348Z,33.30
2019-02-17T06:35:02.624Z,33.90
2019-02-17T06:37:30.877Z,32.83
2019-02-17T06:39:59.171Z,33.93
2019-02-17T06:42:27.447Z,33.67
2019-02-17T06:44:55.734Z,35.80
2019-02-17T06:47:25.677Z,35.85
2019-02-17T06:49:53.899Z,39.43
2019-02-17T06:52:22.163Z,37.85
2019-02-17T06:54:52.095Z,35.53
2019-02-17T06:57:22.000Z,35.57
2019-02-17T06:59:51.915Z,36.80
2019-02-17T07:02:20.172Z,39.20
2019-02-17T07:05:07.871Z,36.33
2019-02-17T07:07:36.125Z,35.40
2019-02-17T07:10:05.231Z,39.50
2019-02-17T07:12:33.501Z,37.90
2019-02-17T07:15:02.594Z,38.17
2019-02-17T07:17:30.861Z,41.18
2019-02-17T07:19:59.125Z,38.20
2019-02-17T07:22:27.403Z,39.25
2019-02-17T07:24:55.663Z,39.47
2019-02-17T07:27:23.926Z,39.53
2019-02-17T07:29:52.193Z,38.60
2019-02-17T07:32:20.464Z,38.13
2019-02-17T07:34:48.734Z,38.87
2019-02-17T07:37:19.267Z,36.37
2019-02-17T07:39:46.984Z,36.15
2019-02-17T07:42:15.347Z,40.63
2019-02-17T07:44:43.631Z,40.67
2019-02-17T07:47:11.874Z,38.70
2019-02-17T07:49:40.144Z,38.73
2019-02-17T07:52:08.474Z,41.20
2019-02-17T07:54:36.758Z,41.03
2019-02-17T07:57:05.025Z,39.23
2019-02-17T07:59:33.286Z,40.17
2019-02-17T08:02:01.560Z,41.50
2019-02-17T08:04:29.839Z,39.55
2019-02-17T08:06:58.109Z,41.73
2019-02-17T08:09:26.380Z,39.17
2019-02-17T08:11:54.634Z,38.40
2019-02-17T08:14:22.924Z,40.50
2019-02-17T08:16:51.190Z,38.83
2019-02-17T08:19:19.450Z,42.57
2019-02-17T08:21:47.702Z,39.10
2019-02-17T08:24:15.961Z,40.87
2019-02-17T08:26:44.230Z,41.30
2019-02-17T08:29:12.500Z,39.67
2019-02-17T08:31:40.766Z,37.70
2019-02-17T08:34:09.046Z,40.80
2019-02-17T08:36:37.302Z,39.70
2019-02-17T08:39:06.155Z,41.00
2019-02-17T08:41:34.404Z,40.93
2019-02-17T08:44:02.666Z,41.40
2019-02-17T08:46:30.915Z,38.83
2019-02-17T08:48:59.209Z,41.20
2019-02-17T08:51:27.485Z,37.17
2019-02-17T08:53:55.725Z,41.90
2019-02-17T08:56:23.997Z,40.55
2019-02-17T08:58:52.266Z,39.40
2019-02-17T09:01:20.532Z,36.47
2019-02-17T09:03:48.785Z,39.90
2019-02-17T09:06:17.709Z,39.48
2019-02-17T09:08:45.963Z,37.55
2019-02-17T09:11:14.229Z,38.28
2019-02-17T09:13:42.492Z,38.17
2019-02-17T09:16:10.760Z,37.78
2019-02-17T09:18:39.017Z,36.95
2019-02-17T09:21:07.294Z,37.17
2019-02-17T09:23:35.562Z,37.40
2019-02-17T09:26:03.864Z,38.10
2019-02-17T09:28:32.124Z,37.17
2019-02-17T09:31:00.392Z,37.13
2019-02-17T09:33:28.666Z,36.40
2019-02-17T09:35:56.934Z,37.63
2019-02-17T09:38:25.193Z,35.83
2019-02-17T09:40:53.486Z,35.75
2019-02-17T09:43:21.716Z,36.75
2019-02-17T09:45:49.983Z,36.03
2019-02-17T09:48:18.242Z,36.70
2019-02-17T09:50:46.522Z,34.30
2019-02-17T09:53:14.784Z,32.47
2019-02-17T09:55:43.055Z,34.13
2019-02-17T09:58:12.106Z,31.57
2019-02-17T10:00:40.356Z,33.23
2019-02-17T10:03:08.640Z,32.40
2019-02-17T10:05:36.906Z,33.53
2019-02-17T10:08:05.178Z,33.57
2019-02-17T10:10:33.447Z,32.07
2019-02-17T10:13:01.703Z,32.93
2019-02-17T10:15:30.020Z,30.60
2019-02-17T10:17:58.249Z,31.17
2019-02-17T10:20:26.525Z,31.80
2019-02-17T10:22:54.809Z,33.03
2019-02-17T10:25:23.069Z,31.80
2019-02-17T10:27:51.338Z,35.23
2019-02-17T10:30:19.683Z,38.77
2019-02-17T10:32:47.965Z,37.87
2019-02-17T10:35:16.242Z,39.30
2019-02-17T10:37:44.509Z,38.80
2019-02-17T10:40:15.680Z,38.17
2019-02-17T10:42:43.971Z,38.53
2019-02-17T10:45:12.486Z,37.80
2019-02-17T10:47:40.769Z,37.93
2019-02-17T10:50:13.124Z,38.47
2019-02-17T10:52:41.399Z,37.05
2019-02-17T10:55:11.612Z,36.03
2019-02-17T10:57:39.879Z,37.25
2019-02-17T11:00:17.382Z,35.25
2019-02-17T11:02:47.478Z,37.37
2019-02-17T11:05:15.722Z,34.80
2019-02-17T11:07:44.008Z,36.35
2019-02-17T11:10:13.012Z,37.87
2019-02-17T11:12:41.293Z,35.00
2019-02-17T11:15:15.661Z,35.80
2019-02-17T11:17:43.962Z,36.27
2019-02-17T11:20:12.474Z,35.17
2019-02-17T11:22:40.744Z,34.30
2019-02-17T11:25:09.096Z,35.43
2019-02-17T11:27:37.376Z,35.27
2019-02-17T11:30:14.570Z,37.37
2019-02-17T11:32:42.835Z,36.37
2019-02-17T11:35:11.105Z,38.57
2019-02-17T11:37:39.377Z,37.08
2019-02-17T11:40:10.211Z,39.50
2019-02-17T11:42:38.457Z,35.53
2019-02-17T11:45:12.519Z,38.13
2019-02-17T11:47:40.769Z,36.80
2019-02-17T11:50:09.782Z,35.75
2019-02-17T11:52:38.061Z,31.57
2019-02-17T11:55:09.469Z,34.17
2019-02-17T11:57:37.728Z,30.73
2019-02-17T12:00:17.710Z,32.60
2019-02-17T12:02:46.072Z,32.53
2019-02-17T12:05:14.509Z,30.35
2019-02-17T12:07:42.782Z,29.70
2019-02-17T12:10:11.527Z,29.45
2019-02-17T12:12:39.964Z,29.50
2019-02-17T12:15:13.238Z,28.35
2019-02-17T12:17:41.511Z,27.70
2019-02-17T12:20:29.597Z,27.77
2019-02-17T12:22:59.517Z,26.82
2019-02-17T12:25:29.420Z,26.40
2019-02-17T12:28:08.266Z,26.90
2019-02-17T12:30:37.474Z,25.43
2019-02-17T12:33:05.747Z,24.77
2019-02-17T12:35:34.019Z,24.70
2019-02-17T12:38:02.302Z,23.43
2019-02-17T12:40:30.571Z,24.93
2019-02-17T12:42:58.842Z,25.33
2019-02-17T12:45:27.135Z,23.57
2019-02-17T12:47:58.375Z,23.90
2019-02-17T12:50:25.438Z,23.80
2019-02-17T12:52:53.707Z,24.67
2019-02-17T12:55:21.983Z,21.37
2019-02-17T12:57:50.258Z,22.63
2019-02-17T13:00:18.531Z,21.27
2019-02-17T13:02:47.097Z,21.53
2019-02-17T13:05:15.365Z,20.33
2019-02-17T13:07:43.623Z,20.37
2019-02-17T13:10:12.523Z,20.00
2019-02-17T13:12:40.785Z,19.20
2019-02-17T13:15:13.184Z,20.67
2019-02-17T13:17:41.477Z,22.05
2019-02-17T13:20:13.680Z,21.67
2019-02-17T13:22:41.965Z,21.75
2019-02-17T13:25:14.917Z,21.70
2019-02-17T13:27:43.192Z,21.85
2019-02-17T13:30:17.210Z,20.57
2019-02-17T13:32:45.480Z,20.80
2019-02-17T13:35:13.753Z,19.63
2019-02-17T13:37:42.025Z,18.80
2019-02-17T13:40:12.459Z,19.00
2019-02-17T13:42:40.735Z,19.47
2019-02-17T13:45:12.185Z,19.27
2019-02-17T13:47:40.457Z,18.63
2019-02-17T13:50:14.504Z,19.63
2019-02-17T13:52:42.767Z,19.27
2019-02-17T13:55:11.097Z,20.03
2019-02-17T13:57:39.387Z,19.83
2019-02-17T14:00:13.159Z,19.70
2019-02-17T14:02:41.442Z,21.53
2019-02-17T14:05:09.769Z,20.13
2019-02-17T14:07:38.038Z,21.30
2019-02-17T14:10:09.141Z,20.37
2019-02-17T14:12:37.420Z,18.80
2019-02-17T14:15:11.787Z,20.00
2019-02-17T14:17:40.053Z,20.10
2019-02-17T14:20:09.966Z,18.90
2019-02-17T14:22:38.237Z,19.43
2019-02-17T14:25:10.710Z,18.27
2019-02-17T14:27:38.348Z,18.53
2019-02-17T14:30:14.199Z,19.57
2019-02-17T14:32:42.481Z,19.70
2019-02-17T14:35:10.747Z,19.47
2019-02-17T14:37:40.020Z,18.25
2019-02-17T14:40:12.653Z,19.40
2019-02-17T14:42:40.947Z,18.67
2019-02-17T14:45:15.916Z,18.60
2019-02-17T14:47:44.200Z,17.30
2019-02-17T14:50:12.817Z,19.40
2019-02-17T14:52:41.092Z,21.00
2019-02-17T14:55:11.376Z,19.53
2019-02-17T14:57:39.642Z,16.67
2019-02-17T15:00:13.100Z,18.87
2019-02-17T15:02:41.346Z,17.50
2019-02-17T15:05:10.348Z,18.63
2019-02-17T15:07:38.626Z,18.67
2019-02-17T15:10:09.338Z,18.80
2019-02-17T15:12:37.611Z,17.15
2019-02-17T15:15:16.276Z,18.50
2019-02-17T15:17:44.549Z,18.70
2019-02-17T15:20:15.525Z,19.23
2019-02-17T15:22:43.775Z,17.40
2019-02-17T15:25:12.336Z,20.80
2019-02-17T15:27:40.631Z,20.40
2019-02-17T15:30:13.572Z,19.30
2019-02-17T15:32:41.936Z,21.30
2019-02-17T15:35:10.206Z,18.67
2019-02-17T15:37:38.544Z,19.07
2019-02-17T15:40:11.775Z,20.27
2019-02-17T15:42:40.127Z,19.00
2019-02-17T15:45:14.522Z,18.20
2019-02-17T15:47:42.876Z,19.20
2019-02-17T15:50:12.292Z,20.07
2019-02-17T15:52:40.547Z,21.23
2019-02-17T15:55:10.767Z,19.90
2019-02-17T15:57:39.058Z,18.77
2019-02-17T16:00:13.394Z,19.35
2019-02-17T16:02:41.698Z,19.13
2019-02-17T16:05:10.359Z,20.90
2019-02-17T16:07:38.657Z,17.90
2019-02-17T16:10:09.668Z,19.73
2019-02-17T16:12:37.944Z,19.07
2019-02-17T16:15:14.311Z,19.50
2019-02-17T16:17:42.584Z,19.80
2019-02-17T16:20:12.714Z,19.67
2019-02-17T16:22:40.977Z,20.13
2019-02-17T16:25:10.381Z,19.37
2019-02-17T16:27:38.653Z,21.50
2019-02-17T16:30:10.109Z,20.00
2019-02-17T16:32:38.401Z,20.57
2019-02-17T16:35:07.247Z,20.55
2019-02-17T16:37:35.513Z,22.77
2019-02-17T16:40:04.112Z,21.30
2019-02-17T16:42:32.394Z,20.50
2019-02-17T16:45:00.981Z,20.43
2019-02-17T16:47:29.420Z,22.33
2019-02-17T16:49:57.685Z,23.80
2019-02-17T16:52:25.987Z,24.47
2019-02-17T16:54:54.259Z,24.13
2019-02-17T16:57:22.536Z,23.17
2019-02-17T16:59:50.809Z,25.02
2019-02-17T17:02:19.095Z,22.97
2019-02-17T17:04:48.926Z,23.33
2019-02-17T17:07:17.240Z,23.67
2019-02-17T17:09:45.519Z,23.90
2019-02-17T17:12:13.813Z,24.80
2019-02-17T17:14:42.093Z,25.13
2019-02-17T17:17:10.382Z,25.00
2019-02-17T17:19:38.665Z,22.80
2019-02-17T17:22:06.930Z,23.90
2019-02-17T17:24:35.210Z,25.60
2019-02-17T17:27:03.552Z,23.50
2019-02-17T17:29:31.825Z,25.43
2019-02-17T17:32:00.090Z,26.07
2019-02-17T17:34:28.374Z,26.02
2019-02-17T17:36:56.669Z,24.32
2019-02-17T17:39:24.959Z,23.73
2019-02-17T17:41:53.224Z,25.80
2019-02-17T17:44:21.495Z,29.00
2019-02-17T17:46:49.770Z,25.93
2019-02-17T17:49:19.499Z,29.07
2019-02-17T17:51:47.896Z,25.10
2019-02-17T17:54:16.184Z,26.07
2019-02-17T17:56:44.444Z,26.90
2019-02-17T17:59:12.708Z,25.10
2019-02-17T18:01:40.977Z,26.10
2019-02-17T18:04:09.248Z,26.10
2019-02-17T18:06:37.526Z,29.20
2019-02-17T18:09:06.484Z,28.00
2019-02-17T18:11:34.749Z,26.50
2019-02-17T18:14:02.994Z,27.97
2019-02-17T18:16:31.260Z,26.67
2019-02-17T18:18:59.524Z,26.07
2019-02-17T18:21:27.799Z,26.02
2019-02-17T18:23:56.068Z,25.75
2019-02-17T18:26:24.325Z,26.33
2019-02-17T18:28:52.608Z,26.00
2019-02-17T18:31:20.888Z,27.33
2019-02-17T18:33:49.179Z,27.27
2019-02-17T18:36:17.493Z,25.20
2019-02-17T18:38:45.740Z,25.37
2019-02-17T18:41:14.003Z,27.20
2019-02-17T18:43:42.767Z,27.60
2019-02-17T18:46:11.100Z,27.22
2019-02-17T18:48:39.354Z,26.33
2019-02-17T18:51:07.623Z,25.33
2019-02-17T18:53:35.878Z,25.73
2019-02-17T18:56:04.141Z,26.40
2019-02-17T18:58:32.409Z,27.90
2019-02-17T19:01:00.680Z,29.48
2019-02-17T19:03:29.031Z,26.90
2019-02-17T19:05:57.292Z,26.80
2019-02-17T19:08:25.548Z,28.03
2019-02-17T19:10:53.808Z,27.07
2019-02-17T19:13:22.063Z,26.90
2019-02-17T19:15:50.330Z,27.97
2019-02-17T19:18:18.594Z,27.25
2019-02-17T19:20:46.875Z,26.77
2019-02-17T19:23:15.145Z,26.90
2019-02-17T19:25:43.412Z,27.60
2019-02-17T19:28:11.669Z,27.62
2019-02-17T19:30:39.929Z,28.33
2019-02-17T19:33:08.181Z,27.80
2019-02-17T19:35:41.919Z,29.27
2019-02-17T19:38:06.468Z,30.27
2019-02-17T19:40:34.723Z,28.70
2019-02-17T19:43:03.621Z,28.53
2019-02-17T19:45:31.923Z,28.37
2019-02-17T19:48:00.178Z,28.60
2019-02-17T19:50:28.429Z,27.03
2019-02-17T19:52:56.678Z,28.23
2019-02-17T19:55:24.930Z,27.73
2019-02-17T19:57:53.188Z,28.60
2019-02-17T20:00:22.182Z,28.62
2019-02-17T20:03:08.273Z,28.60
2019-02-17T20:05:38.164Z,29.97
2019-02-17T20:08:06.424Z,27.50
2019-02-17T20:10:34.689Z,29.40
2019-02-17T20:13:02.957Z,26.70
2019-02-17T20:15:33.096Z,28.15
2019-02-17T20:18:01.372Z,27.23
2019-02-17T20:20:29.651Z,27.85
2019-02-17T20:22:57.935Z,28.93
2019-02-17T20:25:26.205Z,27.60
2019-02-17T20:27:54.473Z,28.97
2019-02-17T20:30:22.760Z,28.30
2019-02-17T20:32:51.038Z,27.67
2019-02-17T20:35:19.300Z,28.30
2019-02-17T20:37:47.584Z,30.23
2019-02-17T20:40:17.197Z,27.77
2019-02-17T20:42:45.468Z,29.07
2019-02-17T20:45:13.811Z,27.87
2019-02-17T20:47:42.582Z,28.50
2019-02-17T20:50:13.266Z,29.02
2019-02-17T20:52:41.541Z,27.17
2019-02-17T20:55:11.440Z,29.00
2019-02-17T20:57:40.022Z,28.60
2019-02-17T21:00:15.587Z,29.70
2019-02-17T21:02:43.849Z,29.25
2019-02-17T21:05:12.120Z,26.13
2019-02-17T21:07:40.387Z,28.53
2019-02-17T21:10:12.578Z,29.37
2019-02-17T21:12:40.848Z,28.90
2019-02-17T21:15:11.215Z,28.17
2019-02-17T21:17:39.952Z,30.80
2019-02-17T21:20:09.675Z,27.53
2019-02-17T21:22:37.941Z,28.17
2019-02-17T21:25:11.094Z,29.23
2019-02-17T21:27:39.353Z,29.07
2019-02-17T21:30:19.905Z,28.47
2019-02-17T21:32:48.185Z,29.53
2019-02-17T21:35:17.072Z,27.20
2019-02-17T21:37:45.346Z,27.93
2019-02-17T21:40:14.152Z,29.50
2019-02-17T21:42:42.425Z,28.23
2019-02-17T21:45:16.832Z,27.73
2019-02-17T21:47:45.088Z,29.83
2019-02-17T21:50:14.093Z,28.70
2019-02-17T21:52:42.595Z,28.60
2019-02-17T21:55:14.032Z,28.80
2019-02-17T21:57:42.312Z,30.23
2019-02-17T22:00:20.360Z,28.20
2019-02-17T22:02:48.696Z,27.10
2019-02-17T22:05:16.968Z,29.75
2019-02-17T22:07:45.229Z,30.23
2019-02-17T22:10:20.035Z,29.20
2019-02-17T22:12:50.932Z,29.87
2019-02-17T22:15:19.722Z,30.40
2019-02-17T22:17:48.005Z,31.27
2019-02-17T22:20:16.268Z,30.92
2019-02-17T22:22:44.535Z,30.93
2019-02-17T22:25:14.325Z,32.00
2019-02-17T22:27:42.593Z,31.42
2019-02-17T22:30:12.762Z,30.53
2019-02-17T22:32:41.025Z,31.67
2019-02-17T22:35:09.555Z,30.33
2019-02-17T22:37:37.844Z,30.23
2019-02-17T22:40:11.449Z,29.30
2019-02-17T22:42:39.724Z,31.93
2019-02-17T22:45:09.935Z,30.97
2019-02-17T22:47:38.189Z,31.67
2019-02-17T22:50:09.767Z,28.50
2019-02-17T22:52:38.020Z,29.77
2019-02-17T22:55:09.099Z,30.43
2019-02-17T22:57:37.358Z,29.73
2019-02-17T23:00:26.586Z,30.50
2019-02-17T23:02:54.863Z,30.90
2019-02-17T23:05:23.148Z,28.57
2019-02-17T23:07:51.428Z,32.10
2019-02-17T23:10:19.707Z,33.60
2019-02-17T23:12:47.977Z,35.67
2019-02-17T23:15:16.250Z,34.20
2019-02-17T23:17:44.545Z,33.90
2019-02-17T23:20:13.650Z,31.50
2019-02-17T23:22:41.932Z,30.32
2019-02-17T23:25:10.189Z,30.32
2019-02-17T23:27:38.470Z,29.63
2019-02-17T23:30:08.876Z,30.20
2019-02-17T23:32:37.151Z,28.70
2019-02-17T23:35:05.993Z,28.50
2019-02-17T23:37:34.273Z,29.00
2019-02-17T23:40:02.517Z,29.73
2019-02-17T23:42:30.773Z,27.80
2019-02-17T23:44:59.055Z,29.87
2019-02-17T23:47:27.317Z,28.10
2019-02-17T23:49:55.579Z,28.40
2019-02-17T23:52:23.849Z,28.77
2019-02-17T23:54:52.107Z,28.50
2019-02-17T23:57:20.376Z,28.13
2019-02-17T23:59:48.630Z,30.77
